Time;durP1;ratioP1;P1;durP2;ratioP2;P2;SDS_P1;SDS_P2;PMS_P1;PMS_P2;Temp;Humidity;BMP_temperature;BMP_pressure;BME280_temperature;BME280_humidity;BME280_pressure;Samples;Min_cycle;Max_cycle;Signal;HPM_P1;HPM_P2
2022/11/14 00:00:40;;;;;;;19.80;9.70;;;4.50;99.90;;;;;;5026748;28;20450;-59
2022/11/14 00:03:06;;;;;;;20.80;10.47;;;4.50;99.90;;;;;;5029405;28;20430;-60
2022/11/14 00:05:32;;;;;;;17.80;10.17;;;4.50;99.90;;;;;;5031120;28;20928;-60
2022/11/14 00:07:58;;;;;;;14.97;8.90;;;4.40;99.90;;;;;;5028400;28;20431;-60
2022/11/14 00:10:24;;;;;;;19.30;9.20;;;4.40;99.90;;;;;;5021469;28;20430;-60
2022/11/14 00:12:49;;;;;;;25.00;9.67;;;4.40;99.90;;;;;;5030061;28;20227;-60
2022/11/14 00:15:16;;;;;;;23.27;9.90;;;4.50;99.90;;;;;;5031028;28;20179;-60
2022/11/14 00:17:41;;;;;;;22.37;9.80;;;4.40;99.90;;;;;;5025542;28;20186;-60
2022/11/14 00:20:10;;;;;;;17.43;10.67;;;4.40;99.90;;;;;;5028961;28;20419;-60
2022/11/14 00:22:36;;;;;;;14.20;8.97;;;4.40;99.90;;;;;;5027904;28;20686;-60
2022/11/14 00:25:02;;;;;;;18.00;10.27;;;4.40;99.90;;;;;;5014514;28;20446;-60
2022/11/14 00:27:28;;;;;;;46.67;11.70;;;4.40;99.90;;;;;;5029648;28;20612;-60
2022/11/14 00:29:53;;;;;;;14.40;9.20;;;4.50;99.90;;;;;;5028396;28;20437;-60
2022/11/14 00:32:21;;;;;;;16.17;9.37;;;4.50;99.90;;;;;;5029148;28;20633;-60
2022/11/14 00:34:47;;;;;;;17.60;9.57;;;4.40;99.90;;;;;;5028429;28;20218;-61
2022/11/14 00:37:13;;;;;;;17.23;10.20;;;4.50;99.90;;;;;;5030199;28;20452;-60
2022/11/14 00:39:38;;;;;;;19.10;9.73;;;4.40;99.90;;;;;;5024548;28;20418;-58
2022/11/14 00:42:04;;;;;;;18.80;10.30;;;4.40;99.90;;;;;;5027188;28;20473;-60
2022/11/14 00:44:30;;;;;;;18.77;9.90;;;4.40;99.90;;;;;;5028749;28;20222;-60
2022/11/14 00:46:55;;;;;;;18.33;9.20;;;4.50;99.90;;;;;;5029895;28;20261;-60
2022/11/14 00:49:21;;;;;;;18.17;9.90;;;4.40;99.90;;;;;;5028716;28;20180;-60
2022/11/14 00:51:46;;;;;;;15.60;9.70;;;4.50;99.90;;;;;;5020410;28;20207;-60
2022/11/14 00:54:12;;;;;;;22.43;9.47;;;4.50;99.90;;;;;;5029968;28;20230;-59
2022/11/14 00:56:38;;;;;;;20.17;9.93;;;4.40;99.90;;;;;;5023589;28;20177;-60
2022/11/14 00:59:03;;;;;;;19.90;9.93;;;4.50;99.90;;;;;;5028326;28;20642;-60
2022/11/14 01:01:29;;;;;;;16.10;9.73;;;4.50;99.90;;;;;;5028387;28;20199;-60
2022/11/14 01:03:55;;;;;;;18.00;9.70;;;4.50;99.90;;;;;;5029312;28;20611;-60
2022/11/14 01:06:20;;;;;;;16.93;9.40;;;4.50;99.90;;;;;;5020620;28;20169;-58
2022/11/14 01:08:48;;;;;;;38.43;10.77;;;4.50;99.90;;;;;;5027373;28;20184;-58
2022/11/14 01:11:20;;;;;;;31.97;10.50;;;4.50;99.90;;;;;;5027790;28;20234;-60
2022/11/14 01:13:46;;;;;;;21.50;9.27;;;4.50;99.90;;;;;;5027095;28;21085;-58
2022/11/14 01:16:12;;;;;;;18.60;8.90;;;4.50;99.90;;;;;;5028850;28;20803;-58
2022/11/14 01:18:39;;;;;;;16.17;8.73;;;4.50;99.90;;;;;;5029296;28;20410;-59
2022/11/14 01:21:07;;;;;;;16.27;9.60;;;4.50;99.90;;;;;;5028254;28;20443;-60
2022/11/14 01:23:33;;;;;;;18.90;9.20;;;4.40;99.90;;;;;;5022366;28;20925;-58
2022/11/14 01:26:11;;;;;;;17.00;9.23;;;4.50;99.90;;;;;;5027792;28;20460;-58
2022/11/14 01:28:38;;;;;;;30.47;9.60;;;4.50;99.90;;;;;;5030128;28;20279;-58
2022/11/14 01:31:15;;;;;;;17.57;9.47;;;4.50;99.90;;;;;;5026378;28;20488;-58
2022/11/14 01:33:41;;;;;;;17.87;9.20;;;4.50;99.90;;;;;;5026518;28;20552;-58
2022/11/14 01:36:08;;;;;;;18.07;9.07;;;4.50;99.90;;;;;;5027983;28;20523;-58
2022/11/14 01:38:35;;;;;;;17.60;9.33;;;4.50;99.90;;;;;;5027602;28;20980;-59
2022/11/14 01:41:01;;;;;;;17.80;9.20;;;4.50;99.90;;;;;;5028908;28;20450;-58
2022/11/14 01:43:38;;;;;;;18.70;9.70;;;4.50;99.90;;;;;;5022762;28;20434;-58
2022/11/14 01:46:06;;;;;;;26.67;9.20;;;4.50;99.90;;;;;;5025938;28;20195;-58
2022/11/14 01:48:35;;;;;;;17.47;9.50;;;4.50;99.90;;;;;;5026245;28;20457;-58
2022/11/14 01:51:29;;;;;;;20.43;9.70;;;4.50;99.90;;;;;;5027011;28;20542;-58
2022/11/14 01:53:57;;;;;;;21.60;9.00;;;4.50;99.90;;;;;;5018883;28;20481;-58
2022/11/14 01:56:34;;;;;;;18.23;9.80;;;4.50;99.90;;;;;;5029624;28;20496;-58
2022/11/14 01:59:14;;;;;;;18.83;9.83;;;4.50;99.90;;;;;;5021597;28;21206;-58
2022/11/14 02:01:48;;;;;;;22.90;10.70;;;4.50;99.90;;;;;;5025716;28;20545;-58
2022/11/14 02:04:27;;;;;;;19.50;10.33;;;4.50;99.90;;;;;;5023726;28;20449;-58
2022/11/14 02:06:57;;;;;;;17.93;10.30;;;4.50;99.90;;;;;;5022209;28;20429;-58
2022/11/14 02:09:22;;;;;;;18.50;10.53;;;4.50;99.90;;;;;;5022255;28;20445;-60
2022/11/14 02:11:49;;;;;;;14.43;9.43;;;4.50;99.90;;;;;;5025767;28;20824;-58
2022/11/14 02:14:15;;;;;;;21.60;10.33;;;4.60;99.90;;;;;;5026961;28;20176;-59
2022/11/14 02:16:42;;;;;;;22.00;10.90;;;4.60;99.90;;;;;;5025725;28;20995;-58
2022/11/14 02:19:08;;;;;;;21.60;11.80;;;4.60;99.90;;;;;;5024127;28;20260;-58
2022/11/14 02:21:34;;;;;;;29.80;11.57;;;4.60;99.90;;;;;;5025042;28;21156;-58
2022/11/14 02:24:00;;;;;;;18.60;10.80;;;4.60;99.90;;;;;;5024490;28;20469;-58
2022/11/14 02:26:25;;;;;;;23.60;12.40;;;4.70;99.90;;;;;;5028817;28;20271;-58
2022/11/14 02:28:51;;;;;;;25.00;11.63;;;4.70;99.90;;;;;;5027403;28;20666;-60
2022/11/14 02:31:17;;;;;;;21.17;11.20;;;4.70;99.90;;;;;;5030448;28;20246;-60
2022/11/14 02:33:43;;;;;;;18.67;10.60;;;4.70;99.90;;;;;;5026361;28;20458;-60
2022/11/14 02:36:09;;;;;;;27.90;12.80;;;4.70;99.90;;;;;;5027370;28;20180;-60
2022/11/14 02:38:35;;;;;;;20.20;11.37;;;4.70;99.90;;;;;;5029286;28;20211;-60
2022/11/14 02:41:01;;;;;;;31.40;10.60;;;4.70;99.90;;;;;;5031671;28;20505;-60
2022/11/14 02:43:26;;;;;;;20.80;11.23;;;4.70;99.90;;;;;;5022923;28;20564;-60
2022/11/14 02:45:52;;;;;;;19.80;11.40;;;4.70;99.90;;;;;;5025882;28;20439;-61
2022/11/14 02:48:18;;;;;;;19.03;10.03;;;4.70;99.90;;;;;;5027732;28;20210;-60
2022/11/14 02:50:43;;;;;;;19.83;10.97;;;4.70;99.90;;;;;;5028090;28;20218;-60
2022/11/14 02:53:09;;;;;;;20.07;10.47;;;4.70;99.90;;;;;;5025987;28;20196;-60
2022/11/14 02:55:35;;;;;;;19.67;10.60;;;4.70;99.90;;;;;;5026336;28;20770;-61
2022/11/14 02:58:00;;;;;;;19.40;11.10;;;4.80;99.90;;;;;;5031139;28;20188;-60
2022/11/14 03:00:26;;;;;;;19.77;11.00;;;4.80;99.90;;;;;;5028877;28;20202;-60
2022/11/14 03:02:52;;;;;;;20.50;10.70;;;4.80;99.90;;;;;;5025493;28;20187;-61
2022/11/14 03:05:18;;;;;;;18.47;10.70;;;4.80;99.90;;;;;;5028768;28;20225;-60
2022/11/14 03:07:44;;;;;;;20.63;10.70;;;4.80;99.90;;;;;;5024717;28;20518;-61
2022/11/14 03:10:10;;;;;;;20.87;11.00;;;4.80;99.90;;;;;;5029638;28;20426;-60
2022/11/14 03:12:36;;;;;;;20.73;11.20;;;4.80;99.90;;;;;;5022453;28;20226;-60
2022/11/14 03:15:04;;;;;;;19.47;11.40;;;4.80;99.90;;;;;;5029560;28;20463;-61
2022/11/14 03:17:32;;;;;;;22.97;11.37;;;4.90;99.90;;;;;;5032201;28;20428;-60
2022/11/14 03:19:58;;;;;;;18.73;11.30;;;4.90;99.90;;;;;;5029503;28;20504;-60
2022/11/14 03:22:24;;;;;;;24.00;12.07;;;4.90;99.90;;;;;;5029186;28;20450;-60
2022/11/14 03:24:50;;;;;;;21.20;11.83;;;4.90;99.90;;;;;;5031297;28;20832;-60
2022/11/14 03:27:15;;;;;;;21.30;11.73;;;4.90;99.90;;;;;;5030585;28;20234;-60
2022/11/14 03:29:41;;;;;;;24.33;12.17;;;5.00;99.90;;;;;;5030017;28;20569;-60
2022/11/14 03:32:07;;;;;;;23.80;12.00;;;5.00;99.90;;;;;;5023070;28;20254;-61
2022/11/14 03:34:32;;;;;;;23.13;13.00;;;5.00;99.90;;;;;;5028053;28;20188;-60
2022/11/14 03:36:59;;;;;;;27.00;12.83;;;5.00;99.90;;;;;;5030037;28;20172;-60
2022/11/14 03:39:25;;;;;;;21.70;12.03;;;5.00;99.90;;;;;;5027609;28;20219;-60
2022/11/14 03:41:51;;;;;;;22.70;12.30;;;5.00;99.90;;;;;;5024910;28;20466;-60
2022/11/14 03:44:17;;;;;;;27.87;13.70;;;5.00;99.90;;;;;;5026651;28;20461;-60
2022/11/14 03:46:42;;;;;;;23.10;12.90;;;5.00;99.90;;;;;;5027947;28;20226;-59
2022/11/14 03:49:08;;;;;;;24.57;13.60;;;5.00;99.90;;;;;;5026731;28;20168;-60
2022/11/14 03:51:34;;;;;;;25.73;13.10;;;5.00;99.90;;;;;;5028256;28;20320;-60
2022/11/14 03:53:59;;;;;;;31.20;14.00;;;5.10;99.90;;;;;;5023409;28;20201;-60
2022/11/14 03:56:25;;;;;;;35.40;12.73;;;5.10;99.90;;;;;;5054071;22;20526;-58
2022/11/14 03:58:51;;;;;;;30.33;12.73;;;5.00;99.90;;;;;;5016799;28;20234;-60
2022/11/14 04:01:16;;;;;;;28.77;13.50;;;5.00;99.90;;;;;;5026598;28;21004;-59
2022/11/14 04:03:42;;;;;;;24.13;12.97;;;5.00;99.90;;;;;;5026221;28;20210;-59
2022/11/14 04:06:08;;;;;;;27.90;13.27;;;5.00;99.90;;;;;;5028346;28;20685;-58
2022/11/14 04:08:33;;;;;;;28.00;12.70;;;4.90;99.90;;;;;;5027445;28;20659;-59
2022/11/14 04:10:59;;;;;;;27.33;13.60;;;4.90;99.90;;;;;;5026456;28;20194;-58
2022/11/14 04:13:25;;;;;;;28.80;15.17;;;4.90;99.90;;;;;;5024016;28;20199;-61
2022/11/14 04:15:57;;;;;;;29.80;14.10;;;5.00;99.90;;;;;;5028524;28;20230;-56
2022/11/14 04:18:24;;;;;;;26.37;13.10;;;5.00;99.90;;;;;;5026304;28;20187;-56
2022/11/14 04:20:50;;;;;;;28.53;13.70;;;5.00;99.90;;;;;;5031366;28;20975;-58
2022/11/14 04:23:16;;;;;;;33.83;14.20;;;5.00;99.90;;;;;;5026617;28;20461;-56
2022/11/14 04:25:43;;;;;;;27.37;14.23;;;5.00;99.90;;;;;;5025618;28;20474;-60
2022/11/14 04:28:09;;;;;;;39.03;17.30;;;5.00;99.90;;;;;;5022349;28;20423;-58
2022/11/14 04:30:35;;;;;;;37.10;15.07;;;5.00;99.90;;;;;;5026243;28;20522;-58
2022/11/14 04:33:00;;;;;;;40.00;17.57;;;5.00;99.90;;;;;;5025417;28;20486;-59
2022/11/14 04:35:26;;;;;;;36.03;15.50;;;5.00;99.90;;;;;;5025719;28;20337;-57
2022/11/14 04:37:51;;;;;;;39.97;17.63;;;5.00;99.90;;;;;;5028620;28;20176;-62
2022/11/14 04:40:17;;;;;;;45.50;17.63;;;5.10;99.90;;;;;;5026544;28;20302;-58
2022/11/14 04:42:43;;;;;;;56.23;19.10;;;5.10;99.90;;;;;;5027653;28;20658;-59
2022/11/14 04:45:08;;;;;;;45.10;16.90;;;5.10;99.90;;;;;;5026676;28;20171;-56
2022/11/14 04:47:34;;;;;;;43.70;17.57;;;5.10;99.90;;;;;;5029318;28;20526;-57
2022/11/14 04:50:00;;;;;;;35.07;15.80;;;5.10;99.90;;;;;;5025778;28;20182;-59
2022/11/14 04:52:26;;;;;;;37.40;17.40;;;5.10;99.90;;;;;;5027862;28;20620;-58
2022/11/14 04:54:51;;;;;;;37.47;16.87;;;5.10;99.90;;;;;;5025979;28;20176;-56
2022/11/14 04:57:17;;;;;;;40.67;17.97;;;5.10;99.90;;;;;;5023998;28;20211;-58
2022/11/14 04:59:43;;;;;;;35.77;16.40;;;5.20;99.90;;;;;;5022848;28;20179;-59
2022/11/14 05:02:08;;;;;;;40.40;17.77;;;5.20;99.90;;;;;;5019320;28;20707;-60
2022/11/14 05:04:34;;;;;;;36.37;16.37;;;5.20;99.90;;;;;;5026330;28;20697;-56
2022/11/14 05:06:59;;;;;;;30.17;16.10;;;5.30;99.90;;;;;;5022941;28;20213;-60
2022/11/14 05:09:25;;;;;;;35.77;16.37;;;5.30;99.90;;;;;;5026315;28;20199;-56
2022/11/14 05:11:51;;;;;;;35.60;17.10;;;5.30;99.90;;;;;;5020046;28;20183;-57
2022/11/14 05:14:16;;;;;;;34.67;16.80;;;5.30;99.90;;;;;;5024403;28;20239;-58
2022/11/14 05:16:42;;;;;;;31.87;15.00;;;5.30;99.90;;;;;;5022849;28;20203;-57
2022/11/14 05:19:07;;;;;;;32.83;14.40;;;5.30;99.90;;;;;;5025280;28;20180;-58
2022/11/14 05:21:33;;;;;;;36.93;15.80;;;5.30;99.90;;;;;;5024260;28;20183;-56
2022/11/14 05:23:59;;;;;;;32.87;15.10;;;5.30;99.90;;;;;;5021630;28;20268;-59
2022/11/14 05:26:24;;;;;;;31.83;15.27;;;5.20;99.90;;;;;;5023306;28;20739;-57
2022/11/14 05:28:50;;;;;;;42.30;18.13;;;5.20;99.90;;;;;;5022672;28;20188;-59
2022/11/14 05:31:16;;;;;;;33.60;16.47;;;5.20;99.90;;;;;;5026295;28;20180;-58
2022/11/14 05:33:43;;;;;;;31.47;17.13;;;5.20;99.90;;;;;;5025958;28;20585;-56
2022/11/14 05:36:11;;;;;;;32.50;17.30;;;5.20;99.90;;;;;;5021931;28;20449;-57
2022/11/14 05:38:37;;;;;;;34.60;16.67;;;5.20;99.90;;;;;;5024864;28;20431;-59
2022/11/14 05:41:12;;;;;;;30.63;16.23;;;5.20;99.90;;;;;;5019342;28;20483;-51
2022/11/14 05:43:38;;;;;;;30.57;14.87;;;5.20;99.90;;;;;;5024972;28;20441;-51
2022/11/14 05:46:06;;;;;;;28.43;15.10;;;5.20;99.90;;;;;;5025912;28;20496;-57
2022/11/14 05:48:32;;;;;;;29.83;14.67;;;5.20;99.90;;;;;;5018195;28;20466;-57
2022/11/14 05:50:59;;;;;;;28.53;14.37;;;5.30;99.90;;;;;;5019817;28;20462;-57
2022/11/14 05:53:27;;;;;;;28.73;14.90;;;5.30;99.90;;;;;;5020215;28;20384;-57
2022/11/14 05:55:54;;;;;;;37.13;15.27;;;5.40;99.90;;;;;;5027401;28;20497;-58
2022/11/14 05:58:20;;;;;;;26.77;14.03;;;5.40;99.90;;;;;;5028823;28;20413;-57
2022/11/14 06:00:45;;;;;;;25.73;12.67;;;5.40;99.90;;;;;;5028008;28;20433;-59
2022/11/14 06:03:13;;;;;;;27.07;14.00;;;5.40;99.90;;;;;;5032769;28;20414;-58
2022/11/14 06:05:39;;;;;;;25.60;14.50;;;5.50;99.90;;;;;;5044727;28;20203;-59
2022/11/14 06:08:05;;;;;;;22.23;12.50;;;5.50;99.90;;;;;;5033183;28;20460;-57
2022/11/14 06:10:33;;;;;;;32.40;15.50;;;5.50;99.90;;;;;;5032339;28;20418;-59
2022/11/14 06:12:58;;;;;;;33.73;14.50;;;5.60;99.90;;;;;;5029261;28;20219;-58
2022/11/14 06:15:24;;;;;;;27.90;13.97;;;5.60;99.90;;;;;;5035480;28;20427;-58
2022/11/14 06:17:52;;;;;;;24.37;13.13;;;5.70;99.90;;;;;;5035634;28;20172;-59
2022/11/14 06:20:17;;;;;;;23.90;13.17;;;5.70;99.90;;;;;;5033274;28;20172;-58
2022/11/14 06:22:43;;;;;;;23.60;13.70;;;5.70;99.90;;;;;;5031352;28;20552;-58
2022/11/14 06:25:09;;;;;;;26.17;13.70;;;5.70;99.90;;;;;;5031859;28;20716;-61
2022/11/14 06:27:35;;;;;;;26.20;13.20;;;5.70;99.90;;;;;;5025735;28;20180;-59
2022/11/14 06:30:01;;;;;;;23.63;12.83;;;5.70;99.90;;;;;;5027493;28;21007;-58
2022/11/14 06:32:26;;;;;;;23.60;12.37;;;5.70;99.90;;;;;;5051941;28;20198;-60
2022/11/14 06:34:52;;;;;;;17.03;10.37;;;5.70;99.90;;;;;;5045474;28;20435;-60
2022/11/14 06:37:18;;;;;;;24.27;11.50;;;5.80;99.90;;;;;;5030349;28;20192;-57
2022/11/14 06:39:43;;;;;;;24.90;12.90;;;5.80;99.90;;;;;;5032968;28;20171;-58
2022/11/14 06:42:09;;;;;;;21.80;12.50;;;5.80;99.90;;;;;;5031208;28;20222;-59
2022/11/14 06:44:35;;;;;;;23.50;13.40;;;5.90;99.90;;;;;;5032177;28;20180;-63
2022/11/14 06:47:00;;;;;;;24.17;12.77;;;5.90;99.90;;;;;;5038647;28;20184;-57
2022/11/14 06:49:26;;;;;;;22.60;11.37;;;5.90;99.90;;;;;;5032382;28;20202;-58
2022/11/14 06:51:52;;;;;;;21.03;12.30;;;5.90;99.90;;;;;;5031932;28;20239;-58
2022/11/14 06:54:18;;;;;;;26.90;14.10;;;5.90;99.90;;;;;;5029845;28;20557;-57
2022/11/14 06:56:44;;;;;;;25.97;13.03;;;6.00;99.90;;;;;;5032931;28;21012;-57
2022/11/14 06:59:10;;;;;;;25.53;10.70;;;5.90;99.90;;;;;;5031883;28;20184;-59
2022/11/14 07:01:35;;;;;;;24.40;11.10;;;5.90;99.90;;;;;;5032547;28;20175;-58
2022/11/14 07:04:01;;;;;;;24.47;11.80;;;6.00;99.90;;;;;;5027103;28;20187;-59
2022/11/14 07:06:28;;;;;;;17.70;11.00;;;6.00;99.90;;;;;;5018866;28;20235;-59
2022/11/14 07:08:55;;;;;;;18.30;10.07;;;6.00;99.90;;;;;;5025089;28;20262;-58
2022/11/14 07:11:28;;;;;;;17.03;10.00;;;6.00;99.90;;;;;;5028262;28;20477;-58
2022/11/14 07:14:01;;;;;;;15.67;9.23;;;6.10;99.90;;;;;;5031789;28;21195;-58
2022/11/14 07:16:34;;;;;;;18.77;10.17;;;6.10;99.90;;;;;;5032290;28;20454;-58
2022/11/14 07:19:00;;;;;;;14.47;8.70;;;6.10;99.90;;;;;;5029354;28;20437;-58
2022/11/14 07:21:28;;;;;;;15.10;8.90;;;6.20;99.90;;;;;;5015848;28;20906;-60
2022/11/14 07:23:54;;;;;;;21.30;10.27;;;6.20;99.90;;;;;;5031628;28;20453;-57
2022/11/14 07:26:20;;;;;;;19.17;10.17;;;6.20;99.90;;;;;;5045400;28;20453;-59
2022/11/14 07:28:46;;;;;;;17.20;9.87;;;6.20;99.90;;;;;;5039047;28;20434;-58
2022/11/14 07:31:14;;;;;;;14.63;8.63;;;6.20;99.90;;;;;;5035026;28;20180;-59
2022/11/14 07:33:41;;;;;;;14.33;8.53;;;6.20;99.90;;;;;;5035638;28;20465;-58
2022/11/14 07:36:07;;;;;;;14.13;8.20;;;6.20;99.90;;;;;;5030977;28;20473;-60
2022/11/14 07:38:35;;;;;;;15.57;8.20;;;6.20;99.90;;;;;;5029961;28;20792;-59
2022/11/14 07:41:03;;;;;;;15.30;7.30;;;6.20;99.90;;;;;;5031618;28;20410;-58
2022/11/14 07:43:28;;;;;;;11.37;7.00;;;6.30;99.90;;;;;;5031739;28;20435;-57
2022/11/14 07:46:02;;;;;;;14.50;8.67;;;6.30;99.90;;;;;;5034359;28;20963;-59
2022/11/14 07:48:29;;;;;;;11.27;7.10;;;6.30;99.90;;;;;;5031494;28;20552;-62
2022/11/14 07:51:00;;;;;;;11.10;6.47;;;6.40;99.90;;;;;;5029315;28;20435;-58
2022/11/14 07:53:27;;;;;;;12.17;6.37;;;6.40;99.90;;;;;;5032362;28;20460;-57
2022/11/14 07:55:53;;;;;;;8.07;5.40;;;6.50;99.90;;;;;;5030555;28;20860;-57
2022/11/14 07:58:19;;;;;;;11.60;6.47;;;6.50;99.90;;;;;;5027732;28;20454;-58
2022/11/14 08:00:44;;;;;;;10.77;7.00;;;6.60;99.90;;;;;;5042438;28;20167;-57
2022/11/14 08:03:10;;;;;;;13.57;7.37;;;6.60;99.90;;;;;;5047159;28;20183;-60
2022/11/14 08:05:36;;;;;;;10.27;6.50;;;6.70;99.90;;;;;;5023203;28;20202;-58
2022/11/14 08:08:03;;;;;;;14.00;7.53;;;6.70;99.90;;;;;;5030888;28;20192;-59
2022/11/14 08:10:29;;;;;;;13.47;7.40;;;6.70;99.90;;;;;;5031390;28;20429;-59
2022/11/14 08:13:03;;;;;;;15.23;7.57;;;6.70;99.90;;;;;;5029008;28;20470;-58
2022/11/14 08:15:29;;;;;;;16.07;7.70;;;6.80;99.90;;;;;;5030654;28;20198;-60
2022/11/14 08:17:58;;;;;;;13.87;8.83;;;6.80;99.90;;;;;;5028533;28;20434;-58
2022/11/14 08:20:25;;;;;;;14.80;8.27;;;6.80;99.90;;;;;;5025381;28;20545;-57
2022/11/14 08:22:52;;;;;;;14.90;8.93;;;6.80;99.90;;;;;;5030905;28;20510;-58
2022/11/14 08:25:18;;;;;;;11.70;7.93;;;6.70;99.90;;;;;;5030525;28;20425;-56
2022/11/14 08:27:44;;;;;;;13.60;8.53;;;6.70;99.90;;;;;;5029827;28;20810;-58
2022/11/14 08:30:10;;;;;;;10.83;7.23;;;6.70;99.90;;;;;;5033381;28;20214;-56
2022/11/14 08:32:35;;;;;;;15.50;7.30;;;6.70;99.90;;;;;;5030218;28;20212;-57
2022/11/14 08:35:01;;;;;;;10.03;6.60;;;6.70;99.90;;;;;;5030662;28;20425;-59
2022/11/14 08:37:27;;;;;;;11.27;7.33;;;6.80;99.90;;;;;;5027662;28;20246;-60
2022/11/14 08:39:52;;;;;;;14.90;7.27;;;6.80;99.90;;;;;;5031388;28;20194;-59
2022/11/14 08:42:18;;;;;;;11.97;6.97;;;6.80;99.90;;;;;;5030525;28;20186;-58
2022/11/14 08:44:43;;;;;;;9.07;6.57;;;6.80;99.90;;;;;;5031209;28;20186;-59
2022/11/14 08:47:09;;;;;;;11.13;7.30;;;6.90;99.90;;;;;;5029988;28;20706;-58
2022/11/14 08:49:35;;;;;;;10.70;6.80;;;6.90;99.90;;;;;;5019397;28;20173;-58
2022/11/14 08:52:00;;;;;;;17.30;6.17;;;7.00;99.90;;;;;;5010787;28;20195;-58
2022/11/14 08:54:26;;;;;;;10.03;6.80;;;7.00;99.90;;;;;;5022261;28;20517;-58
2022/11/14 08:56:52;;;;;;;9.07;6.03;;;7.10;99.90;;;;;;5025725;28;20260;-56
2022/11/14 08:59:17;;;;;;;11.33;6.63;;;7.10;99.90;;;;;;5030615;28;20183;-58
2022/11/14 09:01:43;;;;;;;8.90;5.90;;;7.20;99.90;;;;;;5030065;28;20179;-58
2022/11/14 09:04:09;;;;;;;9.67;6.47;;;7.20;99.90;;;;;;5029000;28;20190;-58
2022/11/14 09:06:34;;;;;;;10.30;7.00;;;7.30;99.90;;;;;;5029556;28;20188;-57
2022/11/14 09:09:00;;;;;;;12.93;7.13;;;7.30;99.90;;;;;;5024593;28;20661;-58
2022/11/14 09:11:25;;;;;;;12.70;7.60;;;7.30;99.90;;;;;;5035680;28;20183;-59
2022/11/14 09:13:51;;;;;;;6.83;5.70;;;7.40;99.90;;;;;;5035257;28;20199;-59
2022/11/14 09:16:17;;;;;;;8.47;6.17;;;7.40;99.90;;;;;;5026275;28;20191;-59
2022/11/14 09:18:42;;;;;;;9.30;5.63;;;7.40;99.90;;;;;;5017003;28;20176;-59
2022/11/14 09:21:09;;;;;;;7.83;5.70;;;7.40;99.90;;;;;;5035871;28;20619;-59
2022/11/14 09:23:35;;;;;;;7.90;5.73;;;7.50;99.90;;;;;;5030260;28;20560;-60
2022/11/14 09:26:08;;;;;;;8.13;5.63;;;7.50;99.90;;;;;;5029389;28;21169;-59
2022/11/14 09:28:34;;;;;;;8.30;5.60;;;7.50;99.90;;;;;;5029766;28;20410;-58
2022/11/14 09:31:08;;;;;;;8.40;5.10;;;7.50;99.90;;;;;;5035289;28;20509;-57
2022/11/14 09:33:34;;;;;;;7.70;4.83;;;7.50;99.90;;;;;;5028374;28;20542;-59
2022/11/14 09:36:02;;;;;;;7.20;4.70;;;7.50;99.90;;;;;;5018880;28;20434;-60
2022/11/14 09:38:28;;;;;;;6.73;4.80;;;7.50;99.90;;;;;;5018513;28;20623;-58
2022/11/14 09:41:19;;;;;;;6.20;4.50;;;7.50;99.90;;;;;;5032361;28;20429;-57
2022/11/14 09:44:11;;;;;;;6.63;4.73;;;7.50;99.90;;;;;;5026124;28;20434;-58
2022/11/14 09:46:48;;;;;;;6.07;4.53;;;7.50;99.90;;;;;;5041235;28;20449;-57
2022/11/14 09:49:50;;;;;;;8.37;4.60;;;7.50;99.90;;;;;;5048549;28;20432;-60
2022/11/14 09:52:38;;;;;;;6.30;4.63;;;7.50;99.90;;;;;;5028721;28;20780;-58
2022/11/14 09:55:22;;;;;;;6.77;4.00;;;7.50;99.90;;;;;;5033056;28;20899;-58
2022/11/14 09:57:48;;;;;;;9.13;4.63;;;7.50;99.90;;;;;;5039125;28;20445;-57
2022/11/14 10:00:22;;;;;;;4.77;3.87;;;7.40;99.90;;;;;;5028108;28;20442;-58
2022/11/14 10:03:07;;;;;;;5.43;3.43;;;7.50;99.90;;;;;;5028921;28;20266;-58
2022/11/14 10:05:35;;;;;;;4.03;3.20;;;7.50;99.90;;;;;;5029667;28;20460;-57
2022/11/14 10:10:47;;;;;;;4.80;3.87;;;7.50;99.90;;;;;;5051669;22;20486;-58
2022/11/14 10:13:28;;;;;;;8.93;4.77;;;7.50;99.90;;;;;;5032303;28;20212;-58
2022/11/14 10:15:53;;;;;;;5.33;3.97;;;7.50;99.90;;;;;;5029685;28;20431;-60
2022/11/14 10:18:28;;;;;;;6.70;4.60;;;7.50;99.90;;;;;;5030053;28;20430;-59
2022/11/14 10:21:06;;;;;;;8.13;4.93;;;7.50;99.90;;;;;;5022278;28;20852;-59
2022/11/14 10:23:42;;;;;;;5.47;4.20;;;7.50;99.90;;;;;;5042834;28;20428;-59
2022/11/14 10:26:10;;;;;;;7.07;5.10;;;7.50;99.90;;;;;;5038846;28;20720;-59
2022/11/14 10:28:44;;;;;;;8.90;5.13;;;7.50;99.90;;;;;;5033046;28;20434;-60
2022/11/14 10:31:30;;;;;;;9.50;4.80;;;7.50;99.90;;;;;;5052889;28;20419;-58
2022/11/14 10:34:17;;;;;;;9.80;5.03;;;7.50;99.90;;;;;;5032212;28;20564;-59
2022/11/14 10:36:43;;;;;;;10.07;6.53;;;7.60;99.90;;;;;;5032817;28;20517;-59
2022/11/14 10:39:23;;;;;;;8.73;6.33;;;7.60;99.90;;;;;;5038005;28;20566;-60
2022/11/14 10:41:51;;;;;;;8.77;5.80;;;7.70;99.90;;;;;;5030253;28;20179;-59
2022/11/14 10:44:23;;;;;;;7.47;5.10;;;7.70;99.90;;;;;;5032330;28;20433;-60
2022/11/14 10:47:04;;;;;;;9.17;5.50;;;7.70;99.90;;;;;;5030621;28;20407;-59
2022/11/14 10:49:35;;;;;;;7.40;5.60;;;7.80;99.90;;;;;;5043660;28;20451;-58
2022/11/14 10:52:05;;;;;;;8.10;5.63;;;7.80;99.90;;;;;;5032120;28;20457;-60
2022/11/14 10:54:42;;;;;;;8.70;6.50;;;7.80;99.90;;;;;;5014362;28;20796;-59
2022/11/14 10:57:20;;;;;;;11.70;6.90;;;7.80;99.90;;;;;;5031612;28;20448;-59
2022/11/14 10:59:46;;;;;;;10.33;7.03;;;7.80;99.90;;;;;;5023588;28;20506;-60
2022/11/14 11:02:12;;;;;;;15.03;7.20;;;7.80;99.90;;;;;;5035369;28;20437;-60
2022/11/14 11:04:40;;;;;;;10.53;6.53;;;7.70;99.90;;;;;;5031050;28;20187;-60
2022/11/14 11:07:05;;;;;;;12.07;7.23;;;7.80;99.90;;;;;;5028854;28;20431;-59
2022/11/14 11:12:19;;;;;;;10.70;6.70;;;7.80;99.90;;;;;;5032065;28;20198;-60
2022/11/14 11:14:47;;;;;;;13.40;8.23;;;7.80;99.90;;;;;;5028021;28;20430;-59
2022/11/14 11:17:14;;;;;;;9.33;6.80;;;7.80;99.90;;;;;;5024454;28;20962;-60
2022/11/14 11:19:43;;;;;;;11.10;7.50;;;7.90;99.90;;;;;;5031506;28;20522;-59
2022/11/14 11:22:35;;;;;;;11.63;7.03;;;7.90;99.90;;;;;;5031625;28;20398;-59
2022/11/14 11:25:01;;;;;;;11.40;6.60;;;7.90;99.90;;;;;;5019771;28;20419;-60
2022/11/14 11:27:29;;;;;;;8.50;6.10;;;7.90;99.90;;;;;;5035170;28;20489;-61
2022/11/14 11:30:05;;;;;;;11.77;7.33;;;8.00;99.90;;;;;;5019479;28;20426;-60
2022/11/14 11:32:31;;;;;;;11.10;6.67;;;8.00;99.90;;;;;;5026893;28;20545;-60
2022/11/14 11:35:01;;;;;;;9.80;6.23;;;8.10;99.90;;;;;;5030129;28;20492;-61
2022/11/14 11:37:41;;;;;;;50.90;21.40;;;8.10;99.90;;;;;;5032937;28;20261;-60
2022/11/14 11:40:18;;;;;;;11.90;7.67;;;8.10;99.90;;;;;;5032066;28;20472;-59
2022/11/14 11:42:56;;;;;;;12.07;7.10;;;8.10;99.90;;;;;;5035764;28;20410;-59
2022/11/14 11:45:22;;;;;;;11.27;7.33;;;8.10;99.90;;;;;;5033619;28;20449;-59
2022/11/14 11:48:00;;;;;;;10.97;6.80;;;8.10;99.90;;;;;;5039906;28;20418;-59
2022/11/14 11:50:26;;;;;;;12.23;5.13;;;8.10;99.90;;;;;;5030293;28;20461;-60
2022/11/14 11:53:13;;;;;;;7.53;5.50;;;8.10;99.90;;;;;;5029929;28;20481;-60
2022/11/14 11:55:52;;;;;;;9.10;5.87;;;8.20;99.90;;;;;;5031965;28;20421;-59
2022/11/14 11:58:20;;;;;;;7.70;5.60;;;8.20;99.90;;;;;;5019178;28;20449;-60
2022/11/14 12:00:46;;;;;;;9.97;6.60;;;8.30;99.90;;;;;;5026061;28;20415;-60
2022/11/14 12:03:14;;;;;;;8.60;5.90;;;8.30;99.90;;;;;;5025046;28;20434;-59
2022/11/14 12:06:01;;;;;;;11.40;6.30;;;8.50;99.90;;;;;;5026963;28;20183;-59
2022/11/14 12:08:48;;;;;;;5.97;4.60;;;8.50;99.90;;;;;;5029401;28;20446;-59
2022/11/14 12:11:18;;;;;;;7.20;5.00;;;8.60;99.90;;;;;;5028100;28;21166;-59
2022/11/14 12:14:03;;;;;;;8.80;5.10;;;8.70;99.90;;;;;;5015468;28;20459;-59
2022/11/14 12:16:55;;;;;;;9.00;4.63;;;8.70;99.90;;;;;;5024779;28;20426;-60
2022/11/14 12:20:12;;;;;;;9.80;6.10;;;8.80;99.90;;;;;;5030067;28;20868;-62
2022/11/14 12:22:58;;;;;;;11.90;5.67;;;8.90;99.90;;;;;;5001063;28;20538;-60
2022/11/14 12:25:43;;;;;;;9.33;5.90;;;8.90;99.90;;;;;;5029239;28;20419;-61
2022/11/14 12:28:11;;;;;;;8.23;5.37;;;9.00;99.90;;;;;;5026162;28;20438;-60
2022/11/14 12:30:39;;;;;;;8.60;4.87;;;9.00;99.90;;;;;;5026942;28;20434;-60
2022/11/14 12:33:35;;;;;;;9.33;4.70;;;9.00;99.90;;;;;;5023207;28;21047;-61
2022/11/14 12:36:06;;;;;;;8.43;5.27;;;9.10;99.90;;;;;;5018844;28;21068;-62
2022/11/14 12:38:41;;;;;;;5.80;4.60;;;9.10;99.90;;;;;;5028502;28;20462;-61
2022/11/14 12:41:08;;;;;;;6.70;5.00;;;9.10;99.90;;;;;;5026541;28;20417;-62
2022/11/14 12:43:35;;;;;;;5.60;4.23;;;9.10;99.90;;;;;;5027577;28;20469;-61
2022/11/14 12:46:10;;;;;;;8.27;4.83;;;9.10;99.90;;;;;;5027190;28;20437;-62
2022/11/14 12:48:35;;;;;;;5.47;4.20;;;9.00;99.90;;;;;;5021427;28;20454;-65
2022/11/14 12:51:04;;;;;;;7.90;5.57;;;9.00;99.90;;;;;;5026919;28;20430;-62
2022/11/14 12:53:39;;;;;;;7.17;4.70;;;8.90;99.90;;;;;;5028481;28;20210;-62
2022/11/14 12:56:13;;;;;;;8.03;5.20;;;8.90;99.90;;;;;;5023764;28;20835;-61
2022/11/14 12:59:10;;;;;;;6.47;4.87;;;8.80;99.90;;;;;;5044204;28;20488;-62